Time;durP1;ratioP1;P1;durP2;ratioP2;P2;SDS_P1;SDS_P2;PMS_P1;PMS_P2;Temp;Humidity;BMP_temperature;BMP_pressure;BME280_temperature;BME280_humidity;BME280_pressure;Samples;Min_cycle;Max_cycle;Signal;HPM_P1;HPM_P2
2021/12/03 00:00:39;;;;;;;15.32;8.25;;;1.00;99.90;;;;;;4958788;29;20046;-71
2021/12/03 00:03:07;;;;;;;16.33;7.90;;;1.10;99.90;;;;;;4957930;28;20050;-72
2021/12/03 00:05:33;;;;;;;19.45;9.00;;;1.10;99.90;;;;;;4957296;29;20038;-71
2021/12/03 00:07:59;;;;;;;15.88;8.60;;;1.10;99.90;;;;;;4958324;28;20027;-71
2021/12/03 00:10:26;;;;;;;16.35;8.00;;;1.10;99.90;;;;;;4958228;28;20098;-71
2021/12/03 00:12:53;;;;;;;20.27;8.65;;;1.00;99.90;;;;;;4957647;28;20473;-71
2021/12/03 00:15:23;;;;;;;15.30;8.35;;;1.00;99.90;;;;;;4957572;28;20441;-71
2021/12/03 00:17:48;;;;;;;15.40;8.43;;;1.00;99.90;;;;;;4957455;29;20030;-71
2021/12/03 00:20:16;;;;;;;14.73;8.13;;;1.00;99.90;;;;;;4957962;29;20385;-71
2021/12/03 00:22:44;;;;;;;13.75;7.55;;;1.00;99.90;;;;;;4957547;28;20485;-71
2021/12/03 00:25:11;;;;;;;13.25;7.13;;;0.90;99.90;;;;;;4958927;28;20082;-71
2021/12/03 00:27:37;;;;;;;12.93;8.02;;;0.90;99.90;;;;;;4956788;29;20086;-71
2021/12/03 00:30:04;;;;;;;17.10;8.07;;;1.00;99.90;;;;;;4943777;29;20106;-71
2021/12/03 00:32:30;;;;;;;16.40;8.80;;;0.90;99.90;;;;;;4956054;29;20038;-72
2021/12/03 00:34:55;;;;;;;17.42;8.60;;;0.90;99.90;;;;;;4956682;28;20110;-72
2021/12/03 00:37:21;;;;;;;12.35;6.93;;;1.00;99.90;;;;;;4957376;29;20094;-71
2021/12/03 00:39:47;;;;;;;12.50;7.22;;;1.00;99.90;;;;;;4956676;29;20444;-71
2021/12/03 00:42:16;;;;;;;12.82;8.07;;;1.00;99.90;;;;;;4956607;28;20129;-72
2021/12/03 00:44:44;;;;;;;17.10;8.07;;;1.00;99.90;;;;;;4955124;29;20544;-69
2021/12/03 00:47:09;;;;;;;13.55;7.85;;;1.00;99.90;;;;;;4956746;28;20110;-70
2021/12/03 00:49:35;;;;;;;14.88;8.55;;;1.00;99.90;;;;;;4955108;29;20114;-70
2021/12/03 00:52:00;;;;;;;12.57;6.68;;;1.00;99.90;;;;;;4956683;29;20049;-72
2021/12/03 00:54:26;;;;;;;18.77;8.13;;;1.00;99.90;;;;;;4956587;29;20151;-72
2021/12/03 00:56:52;;;;;;;13.48;7.53;;;1.00;99.90;;;;;;4956560;29;20575;-72
2021/12/03 00:59:17;;;;;;;12.52;7.93;;;1.00;99.90;;;;;;4947250;29;20033;-71
2021/12/03 01:01:43;;;;;;;12.57;7.95;;;0.90;99.90;;;;;;4937907;29;20036;-72
2021/12/03 01:04:08;;;;;;;14.57;8.50;;;0.90;99.90;;;;;;4937704;29;20543;-71
2021/12/03 01:06:34;;;;;;;13.63;8.05;;;0.90;99.90;;;;;;4938683;29;20091;-70
2021/12/03 01:08:59;;;;;;;12.25;8.00;;;0.90;99.90;;;;;;4937051;29;20036;-71
2021/12/03 01:11:25;;;;;;;11.63;7.45;;;0.90;99.90;;;;;;4937501;28;20028;-71
2021/12/03 01:13:51;;;;;;;10.85;7.03;;;0.80;99.90;;;;;;4948488;29;20389;-71
2021/12/03 01:16:17;;;;;;;15.68;8.25;;;0.80;99.90;;;;;;4959699;28;20023;-71
2021/12/03 01:18:45;;;;;;;10.90;7.78;;;0.80;99.90;;;;;;4956337;28;20051;-71
2021/12/03 01:21:11;;;;;;;12.30;7.85;;;0.80;99.90;;;;;;4957219;28;20098;-71
2021/12/03 01:23:37;;;;;;;12.00;8.30;;;0.80;99.90;;;;;;4956478;28;20036;-71
2021/12/03 01:26:03;;;;;;;15.93;7.55;;;0.80;99.90;;;;;;4954881;29;20051;-73
2021/12/03 01:28:28;;;;;;;9.68;6.80;;;0.90;99.90;;;;;;4939255;28;20482;-72
2021/12/03 01:30:58;;;;;;;10.85;7.22;;;0.90;99.90;;;;;;4936003;29;20215;-72
2021/12/03 01:33:24;;;;;;;13.63;7.13;;;1.00;99.90;;;;;;4937246;29;20098;-73
2021/12/03 01:35:50;;;;;;;16.05;8.07;;;1.00;99.90;;;;;;4937076;29;20027;-73
2021/12/03 01:38:15;;;;;;;15.13;7.82;;;1.10;99.90;;;;;;4936605;29;20035;-73
2021/12/03 01:40:41;;;;;;;14.82;7.65;;;1.10;99.90;;;;;;4941320;29;20561;-73
2021/12/03 01:43:09;;;;;;;13.30;7.25;;;1.10;99.90;;;;;;4956164;28;20047;-73
2021/12/03 01:45:38;;;;;;;10.27;7.22;;;1.00;99.90;;;;;;4955255;28;20110;-73
2021/12/03 01:48:04;;;;;;;10.85;6.90;;;1.00;99.90;;;;;;4956084;28;20110;-72
2021/12/03 01:50:35;;;;;;;14.20;7.70;;;1.00;99.90;;;;;;4954521;29;20420;-72
2021/12/03 01:53:01;;;;;;;15.38;7.65;;;1.00;99.90;;;;;;4954648;28;20031;-73
2021/12/03 01:55:28;;;;;;;9.88;7.22;;;1.00;99.90;;;;;;4944222;28;20031;-72
2021/12/03 01:57:53;;;;;;;11.43;7.22;;;1.10;99.90;;;;;;4940019;29;20366;-72
2021/12/03 02:00:28;;;;;;;9.38;6.90;;;1.10;99.90;;;;;;4936582;29;20020;-73
2021/12/03 02:02:54;;;;;;;10.63;6.68;;;1.00;99.90;;;;;;4937114;29;20478;-73
2021/12/03 02:05:21;;;;;;;9.45;7.10;;;1.00;99.90;;;;;;4936235;29;20035;-73
2021/12/03 02:07:47;;;;;;;9.55;6.55;;;1.00;99.90;;;;;;4936333;29;20137;-71
2021/12/03 02:10:14;;;;;;;14.48;6.80;;;1.10;99.90;;;;;;4950103;29;20066;-71
2021/12/03 02:12:40;;;;;;;9.45;6.50;;;1.00;99.90;;;;;;4936945;29;20425;-71
2021/12/03 02:15:07;;;;;;;14.13;7.40;;;1.10;99.90;;;;;;4936785;29;20046;-71
2021/12/03 02:17:33;;;;;;;16.00;7.18;;;1.00;99.90;;;;;;4936825;29;20114;-71
2021/12/03 02:19:59;;;;;;;11.25;6.35;;;1.00;99.90;;;;;;4953655;29;20027;-71
2021/12/03 02:22:24;;;;;;;15.52;7.10;;;1.10;99.90;;;;;;4956682;29;20116;-71
2021/12/03 02:24:50;;;;;;;11.95;6.68;;;1.00;99.90;;;;;;4954746;28;20058;-72
2021/12/03 02:27:16;;;;;;;9.02;6.75;;;1.00;99.90;;;;;;4954653;29;20051;-71
2021/12/03 02:29:42;;;;;;;11.55;6.65;;;1.00;99.90;;;;;;4941557;29;20054;-71
2021/12/03 02:32:07;;;;;;;9.38;6.30;;;1.00;99.90;;;;;;4937384;28;20370;-71
2021/12/03 02:34:34;;;;;;;10.60;7.22;;;1.00;99.90;;;;;;4938946;29;20031;-71
2021/12/03 02:36:59;;;;;;;13.57;6.47;;;1.00;99.90;;;;;;4939174;29;20019;-71
2021/12/03 02:39:25;;;;;;;8.50;6.45;;;1.00;99.90;;;;;;4940149;29;20060;-71
2021/12/03 02:41:51;;;;;;;12.45;6.47;;;1.00;99.90;;;;;;4939208;29;20030;-71
2021/12/03 02:44:16;;;;;;;10.40;6.70;;;1.00;99.90;;;;;;4938379;29;20498;-72
2021/12/03 02:46:42;;;;;;;9.85;6.45;;;1.00;99.90;;;;;;4938834;29;20028;-72
2021/12/03 02:49:13;;;;;;;9.23;6.85;;;1.00;99.90;;;;;;4947767;29;20032;-71
2021/12/03 02:51:39;;;;;;;16.80;7.20;;;0.90;99.90;;;;;;4958137;29;20133;-71
2021/12/03 02:54:05;;;;;;;8.23;6.30;;;0.90;99.90;;;;;;4958319;29;20031;-72
2021/12/03 02:56:30;;;;;;;8.85;6.05;;;1.00;99.90;;;;;;4959764;28;20031;-71
2021/12/03 02:58:56;;;;;;;11.70;6.50;;;1.00;99.90;;;;;;4954130;29;20035;-72
2021/12/03 03:01:21;;;;;;;12.27;6.60;;;1.00;99.90;;;;;;4941953;29;20385;-71
2021/12/03 03:03:47;;;;;;;10.32;7.10;;;1.00;99.90;;;;;;4942057;29;20390;-72
2021/12/03 03:06:13;;;;;;;9.32;6.35;;;1.00;99.90;;;;;;4944962;29;20038;-71
2021/12/03 03:08:40;;;;;;;9.82;6.78;;;1.00;99.90;;;;;;4939153;29;20123;-72
2021/12/03 03:11:07;;;;;;;11.20;6.97;;;1.10;99.90;;;;;;4959432;29;20101;-71
2021/12/03 03:13:34;;;;;;;10.55;7.18;;;1.10;99.90;;;;;;4960220;29;20035;-71
2021/12/03 03:16:00;;;;;;;11.38;7.57;;;1.10;99.90;;;;;;4958537;28;20027;-71
2021/12/03 03:18:28;;;;;;;10.70;6.85;;;1.10;99.90;;;;;;4958204;28;20043;-71
2021/12/03 03:20:55;;;;;;;14.32;7.75;;;1.10;99.90;;;;;;4941317;28;20087;-71
2021/12/03 03:23:22;;;;;;;9.98;7.10;;;1.10;99.90;;;;;;4940449;29;20032;-71
2021/12/03 03:25:48;;;;;;;12.48;6.82;;;1.10;99.90;;;;;;4937848;29;20024;-72
2021/12/03 03:28:14;;;;;;;11.60;7.70;;;1.10;99.90;;;;;;4937894;29;20115;-72
2021/12/03 03:30:43;;;;;;;13.48;7.72;;;1.10;99.90;;;;;;4940537;29;20164;-70
2021/12/03 03:33:10;;;;;;;12.75;7.57;;;1.10;99.90;;;;;;4938821;29;20028;-71
2021/12/03 03:35:36;;;;;;;12.85;8.23;;;1.00;99.90;;;;;;4937162;29;20035;-71
2021/12/03 03:38:02;;;;;;;11.07;7.72;;;1.10;99.90;;;;;;4938366;29;20421;-71
2021/12/03 03:40:28;;;;;;;13.43;8.40;;;1.10;99.90;;;;;;4952174;29;20030;-71
2021/12/03 03:42:56;;;;;;;16.83;8.50;;;1.10;99.90;;;;;;4957622;28;20477;-71
2021/12/03 03:45:23;;;;;;;10.60;8.38;;;1.20;99.90;;;;;;4957243;29;20444;-71
2021/12/03 03:47:49;;;;;;;11.65;9.05;;;1.20;99.90;;;;;;4956601;28;20046;-71
2021/12/03 03:50:17;;;;;;;19.42;9.55;;;1.20;99.90;;;;;;4957889;28;20019;-71
2021/12/03 03:52:44;;;;;;;11.48;8.38;;;1.30;99.90;;;;;;4957498;28;20024;-71
2021/12/03 03:55:12;;;;;;;12.65;8.25;;;1.30;99.90;;;;;;4957574;28;20043;-71
2021/12/03 03:57:38;;;;;;;12.25;8.43;;;1.30;99.90;;;;;;4953471;28;20030;-71
2021/12/03 04:00:05;;;;;;;11.73;8.73;;;1.30;99.90;;;;;;4938566;29;20079;-71
2021/12/03 04:02:31;;;;;;;14.18;8.55;;;1.40;99.90;;;;;;4938065;29;20079;-71
2021/12/03 04:04:57;;;;;;;12.07;8.60;;;1.40;99.90;;;;;;4937955;29;20028;-71
2021/12/03 04:07:22;;;;;;;15.88;8.10;;;1.40;99.90;;;;;;4938765;29;20031;-71
2021/12/03 04:09:48;;;;;;;18.58;9.02;;;1.40;99.90;;;;;;4955054;28;20441;-71
2021/12/03 04:12:13;;;;;;;20.35;8.77;;;1.40;99.90;;;;;;4957597;29;20106;-71
2021/12/03 04:14:39;;;;;;;14.85;8.30;;;1.40;99.90;;;;;;4957076;29;20090;-71
2021/12/03 04:17:04;;;;;;;13.40;8.45;;;1.40;99.90;;;;;;4938944;29;20055;-71
2021/12/03 04:19:30;;;;;;;12.27;8.25;;;1.40;99.90;;;;;;4938121;29;20402;-70
2021/12/03 04:21:56;;;;;;;11.40;7.63;;;1.40;99.90;;;;;;4938020;29;20024;-70
2021/12/03 04:24:23;;;;;;;15.38;8.32;;;1.40;99.90;;;;;;4938753;29;20019;-71
2021/12/03 04:26:48;;;;;;;13.52;7.88;;;1.40;99.90;;;;;;4954399;29;20056;-71
2021/12/03 04:29:14;;;;;;;12.38;8.07;;;1.40;99.90;;;;;;4958239;28;20023;-71
2021/12/03 04:31:40;;;;;;;14.00;8.38;;;1.40;99.90;;;;;;4958162;29;20445;-71
2021/12/03 04:34:05;;;;;;;16.48;8.98;;;1.40;99.90;;;;;;4956519;28;20020;-72
2021/12/03 04:36:31;;;;;;;12.30;7.45;;;1.50;99.90;;;;;;4943887;29;20035;-72
2021/12/03 04:38:57;;;;;;;13.43;7.72;;;1.50;99.90;;;;;;4937754;29;20090;-72
2021/12/03 04:41:22;;;;;;;15.25;8.02;;;1.50;99.90;;;;;;4937539;29;20123;-72
2021/12/03 04:43:48;;;;;;;10.48;7.45;;;1.50;99.90;;;;;;4937885;29;20032;-72
2021/12/03 04:46:14;;;;;;;15.38;8.10;;;1.60;99.90;;;;;;4947956;29;20054;-72
2021/12/03 04:48:39;;;;;;;15.73;8.18;;;1.50;99.90;;;;;;4956650;28;20098;-72
2021/12/03 04:51:05;;;;;;;10.23;7.50;;;1.60;99.90;;;;;;4956676;28;20032;-72
2021/12/03 04:53:30;;;;;;;9.35;7.15;;;1.60;99.90;;;;;;4956513;28;20123;-72
2021/12/03 04:55:56;;;;;;;11.23;8.27;;;1.60;99.90;;;;;;4948448;29;20541;-71
2021/12/03 04:58:22;;;;;;;18.95;8.18;;;1.60;99.90;;;;;;4937393;29;20363;-70
2021/12/03 05:00:51;;;;;;;10.50;7.93;;;1.60;99.90;;;;;;4955692;29;20026;-72
2021/12/03 05:03:16;;;;;;;11.15;8.07;;;1.60;99.90;;;;;;4959351;29;20027;-72
2021/12/03 05:05:47;;;;;;;12.38;8.68;;;1.60;99.90;;;;;;4956417;28;20473;-72
2021/12/03 05:08:12;;;;;;;11.55;7.95;;;1.60;99.90;;;;;;4956125;28;20044;-71
2021/12/03 05:10:41;;;;;;;12.63;7.88;;;1.60;99.90;;;;;;4938989;29;20482;-70
2021/12/03 05:13:10;;;;;;;14.30;8.63;;;1.60;99.90;;;;;;4935631;29;20383;-70
2021/12/03 05:15:37;;;;;;;12.80;8.50;;;1.60;99.90;;;;;;4936844;29;20035;-70
2021/12/03 05:18:04;;;;;;;17.23;8.45;;;1.60;99.90;;;;;;4936325;29;20075;-70
2021/12/03 05:20:30;;;;;;;15.85;9.15;;;1.60;99.90;;;;;;4935950;29;20051;-70
2021/12/03 05:22:57;;;;;;;17.23;10.13;;;1.60;99.90;;;;;;4936719;29;20032;-70
2021/12/03 05:25:22;;;;;;;11.98;8.63;;;1.60;99.90;;;;;;4936495;29;20394;-70
2021/12/03 05:27:50;;;;;;;13.00;8.52;;;1.70;99.90;;;;;;4936512;29;20031;-72
2021/12/03 05:30:16;;;;;;;16.30;8.75;;;1.70;99.90;;;;;;4950183;29;20441;-72
2021/12/03 05:32:42;;;;;;;17.20;8.60;;;1.70;99.90;;;;;;4956220;28;20038;-72
2021/12/03 05:35:09;;;;;;;16.20;9.25;;;1.70;99.90;;;;;;4956056;28;20376;-72
2021/12/03 05:37:35;;;;;;;15.93;9.02;;;1.70;99.90;;;;;;4955477;29;20027;-71
2021/12/03 05:40:02;;;;;;;11.60;9.10;;;1.80;99.90;;;;;;4943830;28;20043;-72
2021/12/03 05:42:28;;;;;;;13.90;8.98;;;1.80;99.90;;;;;;4934555;29;20032;-72
2021/12/03 05:44:54;;;;;;;14.25;8.98;;;1.80;99.90;;;;;;4936519;29;20028;-72
2021/12/03 05:47:20;;;;;;;16.00;9.57;;;1.80;99.90;;;;;;4936470;29;20489;-72
2021/12/03 05:49:45;;;;;;;16.95;10.32;;;1.80;99.90;;;;;;4945246;29;20071;-72
2021/12/03 05:52:11;;;;;;;14.50;9.65;;;1.80;99.90;;;;;;4955708;28;20401;-72
2021/12/03 05:54:37;;;;;;;13.00;9.35;;;1.80;99.90;;;;;;4955587;29;20114;-72
2021/12/03 05:57:03;;;;;;;13.85;10.57;;;1.90;99.90;;;;;;4949845;28;20027;-71
2021/12/03 05:59:28;;;;;;;15.32;10.40;;;1.80;99.90;;;;;;4943073;29;20024;-70
2021/12/03 06:01:54;;;;;;;17.42;10.27;;;1.80;99.90;;;;;;4953037;28;20039;-70
2021/12/03 06:04:19;;;;;;;16.17;10.70;;;1.80;99.90;;;;;;4952755;28;20071;-70
2021/12/03 06:06:45;;;;;;;16.42;9.80;;;1.80;99.90;;;;;;4953405;28;20090;-70
2021/12/03 06:09:10;;;;;;;22.75;10.95;;;1.70;99.90;;;;;;4952689;29;20058;-70
2021/12/03 06:11:36;;;;;;;18.00;10.95;;;1.80;99.90;;;;;;4952909;28;20042;-70
2021/12/03 06:14:01;;;;;;;18.17;11.68;;;1.80;99.90;;;;;;4952983;28;20034;-70
2021/12/03 06:16:27;;;;;;;15.98;12.07;;;1.80;99.90;;;;;;4953349;28;20038;-70
2021/12/03 06:18:53;;;;;;;16.67;11.70;;;1.80;99.90;;;;;;4954388;28;20026;-70
2021/12/03 06:21:18;;;;;;;24.35;12.40;;;1.80;99.90;;;;;;4953511;28;20027;-71
2021/12/03 06:23:44;;;;;;;17.20;12.95;;;1.80;99.90;;;;;;4955388;28;20063;-72
2021/12/03 06:26:10;;;;;;;21.02;13.27;;;1.70;99.90;;;;;;4956276;28;20031;-72
2021/12/03 06:28:38;;;;;;;20.15;13.38;;;1.70;99.90;;;;;;4955235;28;20035;-72
2021/12/03 06:31:04;;;;;;;21.77;14.73;;;1.70;99.90;;;;;;4936380;28;20142;-72
2021/12/03 06:33:30;;;;;;;20.35;14.48;;;1.70;99.90;;;;;;4936810;29;20035;-71
2021/12/03 06:35:56;;;;;;;26.98;15.73;;;1.70;99.90;;;;;;4941786;29;20199;-71
2021/12/03 06:38:21;;;;;;;24.35;15.85;;;1.70;99.90;;;;;;4944644;29;20035;-71
2021/12/03 06:40:48;;;;;;;26.63;15.70;;;1.70;99.90;;;;;;4952611;29;20114;-72
2021/12/03 06:43:14;;;;;;;28.77;17.60;;;1.70;99.90;;;;;;4955190;28;20470;-71
2021/12/03 06:45:40;;;;;;;27.42;17.60;;;1.70;99.90;;;;;;4954257;28;20031;-71
2021/12/03 06:48:06;;;;;;;27.88;17.88;;;1.60;99.90;;;;;;4954580;28;20091;-70
2021/12/03 06:50:32;;;;;;;29.05;18.25;;;1.60;99.90;;;;;;4940291;29;20027;-72
2021/12/03 06:53:02;;;;;;;33.58;20.88;;;1.60;99.90;;;;;;4934593;28;20028;-72
2021/12/03 06:55:28;;;;;;;37.33;21.55;;;1.60;99.90;;;;;;4936045;29;20082;-72
2021/12/03 06:57:53;;;;;;;34.15;20.27;;;1.50;99.90;;;;;;4936158;29;20023;-71
2021/12/03 07:00:20;;;;;;;35.63;21.92;;;1.50;99.90;;;;;;4949373;29;20525;-71
2021/12/03 07:02:45;;;;;;;37.08;21.17;;;1.50;99.90;;;;;;4953690;28;20425;-71
2021/12/03 07:05:12;;;;;;;43.45;21.70;;;1.50;99.90;;;;;;4953488;28;20111;-71
2021/12/03 07:07:38;;;;;;;37.47;21.30;;;1.50;99.90;;;;;;4954896;28;20042;-71
2021/12/03 07:10:05;;;;;;;35.38;22.63;;;1.50;99.90;;;;;;4954533;28;20019;-71
2021/12/03 07:12:31;;;;;;;42.53;24.02;;;1.50;99.90;;;;;;4954737;28;20113;-71
2021/12/03 07:14:57;;;;;;;39.92;22.98;;;1.50;99.90;;;;;;4955004;28;20118;-72
2021/12/03 07:17:23;;;;;;;41.47;23.17;;;1.50;99.90;;;;;;4955098;29;20062;-72
2021/12/03 07:19:49;;;;;;;37.53;23.48;;;1.40;99.90;;;;;;4943706;28;20028;-71
2021/12/03 07:22:14;;;;;;;36.95;22.20;;;1.40;99.90;;;;;;4936108;29;20152;-72
2021/12/03 07:24:40;;;;;;;38.13;25.13;;;1.40;99.90;;;;;;4935926;29;20032;-72
2021/12/03 07:27:05;;;;;;;40.65;24.90;;;1.40;99.90;;;;;;4934811;28;20109;-72
2021/12/03 07:29:32;;;;;;;40.97;25.40;;;1.40;99.90;;;;;;4942740;29;20114;-71
2021/12/03 07:31:58;;;;;;;45.80;26.83;;;1.40;99.90;;;;;;4954966;28;20082;-72
2021/12/03 07:34:23;;;;;;;47.55;28.25;;;1.30;99.90;;;;;;4955665;28;20110;-72
2021/12/03 07:36:49;;;;;;;46.67;26.52;;;1.30;99.90;;;;;;4953365;28;20062;-72
2021/12/03 07:39:15;;;;;;;51.08;27.48;;;1.30;99.90;;;;;;4949669;28;20103;-72
2021/12/03 07:41:41;;;;;;;52.30;27.45;;;1.30;99.90;;;;;;4935804;29;20086;-72
2021/12/03 07:44:07;;;;;;;55.00;28.90;;;1.30;99.90;;;;;;4937314;29;20363;-72
2021/12/03 07:46:33;;;;;;;52.45;29.65;;;1.30;99.90;;;;;;4937904;28;20163;-72
2021/12/03 07:48:59;;;;;;;53.53;28.92;;;1.30;99.90;;;;;;4941694;29;20028;-72
2021/12/03 07:51:26;;;;;;;53.88;29.23;;;1.30;99.90;;;;;;4957376;28;20106;-71
2021/12/03 07:53:51;;;;;;;51.70;28.20;;;1.30;99.90;;;;;;4958234;28;20365;-71
2021/12/03 07:56:17;;;;;;;58.28;30.02;;;1.30;99.90;;;;;;4957991;28;20070;-72
2021/12/03 07:58:43;;;;;;;54.35;29.17;;;1.30;99.90;;;;;;4958029;28;20028;-71
2021/12/03 08:01:08;;;;;;;56.22;28.75;;;1.40;99.90;;;;;;4939118;29;20454;-72
2021/12/03 08:03:34;;;;;;;59.75;28.05;;;1.40;99.90;;;;;;4939438;29;20035;-71
2021/12/03 08:06:05;;;;;;;52.22;28.13;;;1.50;99.90;;;;;;4939326;29;20035;-72
2021/12/03 08:08:31;;;;;;;54.20;28.38;;;1.50;99.90;;;;;;4940493;29;20031;-72
2021/12/03 08:10:57;;;;;;;58.85;27.85;;;1.50;99.90;;;;;;4957328;28;20042;-72
2021/12/03 08:13:22;;;;;;;57.30;27.48;;;1.60;99.90;;;;;;4957714;28;20039;-72
2021/12/03 08:15:48;;;;;;;51.72;27.85;;;1.70;99.90;;;;;;4956405;28;20019;-74
2021/12/03 08:18:14;;;;;;;59.78;27.42;;;1.70;99.90;;;;;;4957653;28;20023;-72
2021/12/03 08:20:40;;;;;;;54.72;27.30;;;1.80;99.90;;;;;;4940376;28;20024;-72
2021/12/03 08:23:06;;;;;;;50.47;26.83;;;1.80;99.90;;;;;;4938363;29;20486;-72
2021/12/03 08:25:31;;;;;;;50.83;26.15;;;1.80;99.90;;;;;;4938360;29;20478;-72
2021/12/03 08:27:57;;;;;;;55.67;27.10;;;1.90;99.90;;;;;;4938468;29;20028;-71
2021/12/03 08:30:25;;;;;;;60.03;28.13;;;1.90;99.90;;;;;;4950246;28;20456;-72
2021/12/03 08:32:51;;;;;;;56.47;27.90;;;2.00;99.90;;;;;;4956119;28;20040;-73
2021/12/03 08:35:16;;;;;;;57.80;27.35;;;2.10;99.90;;;;;;4957599;28;20038;-73
2021/12/03 08:37:46;;;;;;;60.97;29.25;;;2.10;99.90;;;;;;4958149;28;20117;-72
2021/12/03 08:40:12;;;;;;;49.38;27.48;;;2.10;99.90;;;;;;4957589;28;20485;-72
2021/12/03 08:42:38;;;;;;;60.05;27.80;;;2.20;99.90;;;;;;4957653;28;20393;-72
2021/12/03 08:45:05;;;;;;;53.17;27.83;;;2.20;99.90;;;;;;4961505;28;20079;-72
2021/12/03 08:47:31;;;;;;;56.85;26.17;;;2.20;99.90;;;;;;4959641;28;20027;-72
2021/12/03 08:49:57;;;;;;;54.83;26.67;;;2.30;99.90;;;;;;4957892;28;20054;-73
2021/12/03 08:54:54;;;;;;;59.38;26.85;;;2.30;99.90;;;;;;4956944;28;20024;-73
2021/12/03 08:57:23;;;;;;;61.38;28.92;;;2.30;99.90;;;;;;4956936;28;20023;-73
2021/12/03 08:59:51;;;;;;;56.33;27.25;;;2.40;99.90;;;;;;4945668;28;20082;-72
2021/12/03 09:02:17;;;;;;;63.05;27.38;;;2.40;99.90;;;;;;4937896;29;20035;-73
2021/12/03 09:04:43;;;;;;;61.50;27.65;;;2.40;99.90;;;;;;4937595;29;20027;-73
2021/12/03 09:07:08;;;;;;;58.92;27.55;;;2.40;99.90;;;;;;4968112;28;20043;-73
2021/12/03 09:09:34;;;;;;;58.10;27.35;;;2.50;99.90;;;;;;4946166;29;20533;-73
2021/12/03 09:12:00;;;;;;;56.92;28.48;;;2.50;99.90;;;;;;4958233;28;20425;-73
2021/12/03 09:14:33;;;;;;;51.05;26.83;;;2.40;99.90;;;;;;4959794;28;20118;-73
2021/12/03 09:17:10;;;;;;;60.92;27.50;;;2.50;99.90;;;;;;4958494;28;20042;-72
2021/12/03 09:22:49;;;;;;;59.90;26.77;;;2.50;99.90;;;;;;4936637;29;20042;-73
2021/12/03 09:25:15;;;;;;;55.55;26.52;;;2.60;99.90;;;;;;4938029;29;20374;-72
2021/12/03 09:27:41;;;;;;;65.20;28.20;;;2.60;99.90;;;;;;4937763;29;20034;-72
2021/12/03 09:30:12;;;;;;;51.45;25.17;;;2.60;99.90;;;;;;4937624;29;20478;-72
2021/12/03 09:32:39;;;;;;;60.00;28.45;;;2.60;99.90;;;;;;4937584;29;20051;-72
2021/12/03 09:35:05;;;;;;;59.90;27.02;;;2.70;99.90;;;;;;4937296;29;20441;-72
2021/12/03 09:37:31;;;;;;;61.53;27.98;;;2.70;99.90;;;;;;4939267;29;20048;-71
2021/12/03 09:40:03;;;;;;;64.95;28.20;;;2.70;99.90;;;;;;4947526;29;20052;-72
2021/12/03 09:42:29;;;;;;;63.63;29.67;;;2.70;99.90;;;;;;4956120;28;20035;-72
2021/12/03 09:44:54;;;;;;;77.60;28.30;;;2.80;99.90;;;;;;4957720;28;20031;-73
2021/12/03 09:47:20;;;;;;;68.40;29.27;;;2.80;99.90;;;;;;4954069;28;20468;-72
2021/12/03 09:49:53;;;;;;;68.15;29.77;;;2.80;99.90;;;;;;4935954;29;20094;-73
2021/12/03 09:55:15;;;;;;;65.57;28.33;;;2.80;99.90;;;;;;4936904;29;20469;-72
2021/12/03 10:03:08;;;;;;;67.30;28.60;;;2.90;99.90;;;;;;4936655;29;20500;-73
2021/12/03 10:11:58;;;;;;;;;;;2.90;99.90;;;;;;5110279;28;20140;-49
2021/12/03 11:16:26;;;;;;;67.80;23.33;;;3.30;99.90;;;;;;5053201;28;20031;-73
2021/12/03 11:50:27;;;;;;;57.17;22.77;;;3.60;99.90;;;;;;5035231;28;20145;-72
2021/12/03 12:41:08;;;;;;;52.63;19.10;;;3.90;99.90;;;;;;5034399;28;20056;-71
2021/12/03 12:44:30;;;;;;;40.13;17.40;;;4.00;99.90;;;;;;5034728;28;20041;-71
2021/12/03 12:58:50;;;;;;;36.08;15.63;;;4.00;99.90;;;;;;5033889;28;20036;-72
2021/12/03 13:07:15;;;;;;;36.05;14.60;;;4.00;99.90;;;;;;5036297;28;20032;-71
2021/12/03 13:31:26;;;;;;;30.67;12.88;;;3.90;99.90;;;;;;5022172;28;20025;-71
2021/12/03 13:34:20;;;;;;;30.73;13.07;;;3.90;99.90;;;;;;5030244;28;20079;-71
2021/12/03 14:00:37;;;;;;;22.88;9.35;;;3.70;99.90;;;;;;5013513;28;20022;-70
2021/12/03 14:42:33;;;;;;;25.13;11.35;;;3.50;99.90;;;;;;5032527;28;20359;-71
2021/12/03 14:45:11;;;;;;;25.77;11.35;;;3.50;99.90;;;;;;5032492;28;20056;-71
2021/12/03 14:55:25;;;;;;;24.35;10.93;;;3.60;99.90;;;;;;5034884;28;20033;-70
2021/12/03 14:57:59;;;;;;;29.77;11.88;;;3.60;99.90;;;;;;5035219;28;20041;-70
2021/12/03 15:00:30;;;;;;;27.08;10.45;;;3.60;99.90;;;;;;5034367;28;20036;-71
2021/12/03 15:08:27;;;;;;;23.83;10.43;;;3.50;99.90;;;;;;5037662;28;20103;-70
2021/12/03 15:19:18;;;;;;;16.13;9.90;;;3.50;99.90;;;;;;5035984;28;20089;-71
2021/12/03 15:27:50;;;;;;;27.95;11.82;;;3.40;99.90;;;;;;5037030;28;20028;-71
2021/12/03 15:32:55;;;;;;;31.73;12.95;;;3.40;99.90;;;;;;5032722;28;20025;-71
2021/12/03 15:40:56;;;;;;;30.13;11.93;;;3.50;99.90;;;;;;5035885;28;20026;-71
2021/12/03 16:08:22;;;;;;;33.33;13.02;;;3.50;99.90;;;;;;5036661;28;20368;-72
2021/12/03 16:53:23;;;;;;;30.13;14.48;;;3.80;99.90;;;;;;5034172;28;20033;-73
2021/12/03 16:58:42;;;;;;;34.03;15.05;;;3.80;99.90;;;;;;5032163;28;20182;-71
2021/12/03 17:01:14;;;;;;;34.03;16.38;;;3.80;99.90;;;;;;5031887;28;20068;-70
2021/12/03 17:04:31;;;;;;;24.80;15.75;;;3.70;99.90;;;;;;5033277;28;20181;-71
2021/12/03 17:07:18;;;;;;;35.10;17.48;;;3.80;99.90;;;;;;5032443;28;20087;-71
2021/12/03 17:12:17;;;;;;;24.45;15.73;;;3.80;99.90;;;;;;5032637;28;20029;-71
2021/12/03 17:14:54;;;;;;;35.60;19.63;;;3.80;99.90;;;;;;5033913;28;20075;-71
2021/12/03 17:18:14;;;;;;;28.65;17.13;;;3.80;99.90;;;;;;5035195;28;20403;-71
2021/12/03 17:26:10;;;;;;;31.60;16.30;;;3.90;99.90;;;;;;5036036;28;20025;-70
2021/12/03 17:28:50;;;;;;;26.95;15.35;;;3.90;99.90;;;;;;5035507;28;20136;-71
2021/12/03 17:45:09;;;;;;;24.92;16.42;;;3.90;99.90;;;;;;5037956;28;20067;-72
2021/12/03 17:50:25;;;;;;;27.23;14.85;;;3.90;99.90;;;;;;5035020;28;19905;-71
2021/12/03 18:00:26;;;;;;;21.10;14.43;;;4.00;99.90;;;;;;5038428;28;20112;-70
2021/12/03 18:02:56;;;;;;;20.25;12.38;;;4.00;99.90;;;;;;5036374;28;20491;-70
2021/12/03 18:10:46;;;;;;;52.00;25.50;;;4.10;99.90;;;;;;5036106;28;20025;-71
2021/12/03 18:16:29;;;;;;;23.17;14.38;;;4.10;99.90;;;;;;5037896;28;20036;-71
2021/12/03 18:43:55;;;;;;;23.02;15.23;;;4.20;99.90;;;;;;5042019;28;20457;-71
2021/12/03 18:53:49;;;;;;;22.35;15.23;;;4.30;99.90;;;;;;5041474;28;20021;-70
2021/12/03 18:56:32;;;;;;;33.60;19.77;;;4.30;99.90;;;;;;5042977;28;20017;-71
2021/12/03 18:59:02;;;;;;;23.02;14.10;;;4.40;99.90;;;;;;5041939;28;20021;-70
2021/12/03 19:01:29;;;;;;;21.02;13.80;;;4.40;99.90;;;;;;5040572;28;20025;-71
2021/12/03 19:06:36;;;;;;;20.90;14.27;;;4.40;99.90;;;;;;5040301;28;20025;-71
2021/12/03 19:09:06;;;;;;;27.88;17.05;;;4.40;99.90;;;;;;5040670;28;20451;-70
2021/12/03 19:11:36;;;;;;;36.00;21.77;;;4.50;99.90;;;;;;5041754;28;20028;-72
2021/12/03 19:14:03;;;;;;;24.83;16.07;;;4.50;99.90;;;;;;5036785;28;20034;-73
2021/12/03 19:16:29;;;;;;;22.02;14.60;;;4.50;99.90;;;;;;5041690;28;20264;-73
2021/12/03 19:18:57;;;;;;;19.55;13.85;;;4.50;99.90;;;;;;5039196;28;20075;-72
2021/12/03 19:21:26;;;;;;;21.50;14.93;;;4.50;99.90;;;;;;5039417;28;20021;-73
2021/12/03 19:23:58;;;;;;;19.25;14.73;;;4.60;99.90;;;;;;5040051;28;20026;-73
2021/12/03 19:26:26;;;;;;;18.50;14.30;;;4.60;99.90;;;;;;5039930;28;20026;-71
2021/12/03 19:28:53;;;;;;;21.77;15.02;;;4.60;99.90;;;;;;5037342;28;20097;-74
2021/12/03 19:31:22;;;;;;;19.88;14.60;;;4.60;99.90;;;;;;5035261;28;20744;-72
2021/12/03 19:33:48;;;;;;;22.73;14.63;;;4.60;99.90;;;;;;5027162;28;20068;-74
2021/12/03 19:36:20;;;;;;;29.23;17.30;;;4.60;99.90;;;;;;5039369;28;20022;-72
2021/12/03 19:38:47;;;;;;;20.85;14.15;;;4.60;99.90;;;;;;5038357;28;20546;-71
2021/12/03 19:41:22;;;;;;;22.77;14.25;;;4.60;99.90;;;;;;5037436;28;20033;-74
2021/12/03 19:43:54;;;;;;;23.55;14.07;;;4.60;99.90;;;;;;5017803;28;20359;-72
2021/12/03 19:46:26;;;;;;;22.80;15.15;;;4.70;99.90;;;;;;5018956;28;20017;-72
2021/12/03 19:51:42;;;;;;;22.58;14.77;;;4.70;99.90;;;;;;5035960;28;20391;-71
2021/12/03 19:54:08;;;;;;;27.20;17.50;;;4.70;99.90;;;;;;5038671;28;20032;-71
2021/12/03 19:56:34;;;;;;;19.67;13.57;;;4.70;99.90;;;;;;5037621;28;20435;-71
2021/12/03 19:59:01;;;;;;;20.90;14.30;;;4.70;99.90;;;;;;5037892;28;20019;-71
2021/12/03 20:01:29;;;;;;;24.58;14.95;;;4.70;99.90;;;;;;5037531;28;20057;-71
2021/12/03 20:03:54;;;;;;;22.50;14.95;;;4.70;99.90;;;;;;5039063;28;20018;-71
2021/12/03 20:06:22;;;;;;;23.45;15.82;;;4.60;99.90;;;;;;5037272;28;20021;-72
2021/12/03 20:08:52;;;;;;;19.90;14.38;;;4.70;99.90;;;;;;5037929;28;20371;-71
2021/12/03 20:11:17;;;;;;;24.75;15.60;;;4.70;99.90;;;;;;5037018;28;20037;-71
2021/12/03 20:13:47;;;;;;;23.30;16.17;;;4.60;99.90;;;;;;5035512;28;20014;-71